createdAt,value
2022-09-03T00:00:52.421Z,62.02
2022-09-03T00:04:06.996Z,62.06
2022-09-03T00:07:15.610Z,62.09
2022-09-03T00:10:26.553Z,62.22
2022-09-03T00:13:36.736Z,62.39
2022-09-03T00:16:49.545Z,62.55
2022-09-03T00:19:57.962Z,62.81
2022-09-03T00:23:04.112Z,62.98
2022-09-03T00:26:12.482Z,63.47
2022-09-03T00:29:21.814Z,63.55
2022-09-03T00:32:34.141Z,63.71
2022-09-03T00:36:03.696Z,64.02
2022-09-03T00:39:07.429Z,63.99
2022-09-03T00:42:31.538Z,63.95
2022-09-03T00:46:07.281Z,63.94
2022-09-03T00:49:28.295Z,63.64
2022-09-03T00:52:48.474Z,63.70
2022-09-03T00:55:58.841Z,63.74
2022-09-03T00:59:18.113Z,63.88
2022-09-03T01:02:22.591Z,64.00
2022-09-03T01:05:27.489Z,64.19
2022-09-03T01:08:51.677Z,64.12
2022-09-03T01:12:18.479Z,64.08
2022-09-03T01:15:34.562Z,64.17
2022-09-03T01:18:49.026Z,64.23
2022-09-03T01:22:06.962Z,64.20
2022-09-03T01:25:24.235Z,64.22
2022-09-03T01:28:54.946Z,64.30
2022-09-03T01:32:07.822Z,64.39
2022-09-03T01:35:28.208Z,64.35
2022-09-03T01:38:48.495Z,64.39
2022-09-03T01:42:20.762Z,64.34
2022-09-03T01:45:41.871Z,64.48
2022-09-03T01:49:07.558Z,64.49
2022-09-03T01:52:27.364Z,64.60
2022-09-03T01:55:37.050Z,64.61
2022-09-03T01:58:39.207Z,64.66
2022-09-03T02:01:58.982Z,64.64
2022-09-03T02:05:10.441Z,64.80
2022-09-03T02:08:12.299Z,64.95
2022-09-03T02:11:14.225Z,64.93
2022-09-03T02:14:16.165Z,65.00
2022-09-03T02:17:18.422Z,65.04
2022-09-03T02:20:23.225Z,65.13
2022-09-03T02:23:28.233Z,65.31
2022-09-03T02:26:30.343Z,65.25
2022-09-03T02:29:32.996Z,65.33
2022-09-03T02:32:34.864Z,65.47
2022-09-03T02:35:36.859Z,65.73
2022-09-03T02:38:42.135Z,65.66
2022-09-03T02:41:45.005Z,65.85
2022-09-03T02:44:50.399Z,66.05
2022-09-03T02:47:56.408Z,66.11
2022-09-03T02:50:58.500Z,66.17
2022-09-03T02:54:00.203Z,66.27
2022-09-03T02:57:02.872Z,66.33
2022-09-03T03:00:05.110Z,66.43
2022-09-03T03:03:07.305Z,66.30
2022-09-03T03:06:09.429Z,66.17
2022-09-03T03:09:11.534Z,66.18
2022-09-03T03:12:13.369Z,66.14
2022-09-03T03:15:15.954Z,66.52
2022-09-03T03:18:17.879Z,66.71
2022-09-03T03:21:19.963Z,67.17
2022-09-03T03:24:21.737Z,67.18
2022-09-03T03:27:24.024Z,67.45
2022-09-03T03:30:25.780Z,67.36
2022-09-03T03:33:27.516Z,67.46
2022-09-03T03:36:32.037Z,67.97
2022-09-03T03:39:33.828Z,68.15
2022-09-03T03:42:35.747Z,68.28
2022-09-03T03:45:37.645Z,68.61
2022-09-03T03:48:39.804Z,68.36
2022-09-03T03:51:41.653Z,68.43
2022-09-03T03:54:43.330Z,68.85
2022-09-03T03:57:44.980Z,69.01
2022-09-03T04:00:49.733Z,68.85
2022-09-03T04:03:52.270Z,69.37
2022-09-03T04:06:56.634Z,69.08
2022-09-03T04:09:58.439Z,69.56
2022-09-03T04:13:01.257Z,69.40
2022-09-03T04:16:07.094Z,69.70
2022-09-03T04:19:08.952Z,69.58
2022-09-03T04:22:10.875Z,69.44
2022-09-03T04:25:12.654Z,69.70
2022-09-03T04:28:15.288Z,69.76
2022-09-03T04:31:19.657Z,70.05
2022-09-03T04:34:21.906Z,70.52
2022-09-03T04:37:23.742Z,70.70
2022-09-03T04:40:25.508Z,70.89
2022-09-03T04:43:28.776Z,70.68
2022-09-03T04:46:33.491Z,71.35
2022-09-03T04:49:35.805Z,71.63
2022-09-03T04:52:38.563Z,71.65
2022-09-03T04:55:40.229Z,71.67
2022-09-03T04:58:44.116Z,71.84
2022-09-03T05:01:46.077Z,71.65
2022-09-03T05:04:48.038Z,71.60
2022-09-03T05:07:49.872Z,71.60
2022-09-03T05:11:00.067Z,71.79
2022-09-03T05:14:01.984Z,71.85
2022-09-03T05:17:03.880Z,71.83
2022-09-03T05:20:10.200Z,72.01
2022-09-03T05:23:11.916Z,72.03
2022-09-03T05:26:16.119Z,72.16
2022-09-03T05:29:20.017Z,72.15
2022-09-03T05:32:21.906Z,72.01
2022-09-03T05:35:26.066Z,71.73
2022-09-03T05:38:32.393Z,71.76
2022-09-03T05:41:34.740Z,71.94
2022-09-03T05:44:37.119Z,71.88
2022-09-03T05:47:40.307Z,71.79
2022-09-03T05:50:42.165Z,71.95
2022-09-03T05:53:47.501Z,71.72
2022-09-03T05:56:49.886Z,71.65
2022-09-03T05:59:52.653Z,71.47
2022-09-03T06:02:54.745Z,71.36
2022-09-03T06:05:56.667Z,71.26
2022-09-03T06:09:00.695Z,71.40
2022-09-03T06:12:03.988Z,71.59
2022-09-03T06:15:07.063Z,71.85
2022-09-03T06:18:08.838Z,72.59
2022-09-03T06:21:10.705Z,72.29
2022-09-03T06:24:28.350Z,71.79
2022-09-03T06:27:30.841Z,71.75
2022-09-03T06:30:32.538Z,71.88
2022-09-03T06:33:36.233Z,72.57
2022-09-03T06:36:38.019Z,71.77
2022-09-03T06:39:39.973Z,70.58
2022-09-03T06:42:45.858Z,70.23
2022-09-03T06:46:00.512Z,70.04
2022-09-03T06:49:02.904Z,69.14
2022-09-03T06:52:04.779Z,68.95
2022-09-03T06:55:07.014Z,69.59
2022-09-03T06:58:09.377Z,69.24
2022-09-03T07:01:17.197Z,69.09
2022-09-03T07:04:20.166Z,68.79
2022-09-03T07:07:22.408Z,68.44
2022-09-03T07:10:24.438Z,68.74
2022-09-03T07:13:26.833Z,68.58
2022-09-03T07:16:37.244Z,68.26
2022-09-03T07:19:39.247Z,68.46
2022-09-03T07:22:40.950Z,69.19
2022-09-03T07:25:42.721Z,69.02
2022-09-03T07:28:46.076Z,69.23
2022-09-03T07:31:51.397Z,68.99
2022-09-03T07:34:53.903Z,68.40
2022-09-03T07:37:55.557Z,68.15
2022-09-03T07:41:00.125Z,68.42
2022-09-03T07:44:05.636Z,68.72
2022-09-03T07:47:07.453Z,69.07
2022-09-03T07:50:09.435Z,68.89
2022-09-03T07:53:11.169Z,69.29
2022-09-03T07:56:13.177Z,69.34
2022-09-03T07:59:14.898Z,68.90
2022-09-03T08:02:16.566Z,68.98
2022-09-03T08:05:21.361Z,69.42
2022-09-03T08:08:23.926Z,69.78
2022-09-03T08:11:26.376Z,69.67
2022-09-03T08:14:30.520Z,69.30
2022-09-03T08:17:32.178Z,69.05
2022-09-03T08:20:34.343Z,68.48
2022-09-03T08:23:40.199Z,68.98
2022-09-03T08:26:46.227Z,68.53
2022-09-03T08:29:52.239Z,68.61
2022-09-03T08:32:56.228Z,68.32
2022-09-03T08:35:58.139Z,68.04
2022-09-03T08:39:08.171Z,67.76
2022-09-03T08:42:21.959Z,67.74
2022-09-03T08:45:24.063Z,68.02
2022-09-03T08:48:28.408Z,67.97
2022-09-03T08:51:32.094Z,68.15
2022-09-03T08:54:33.854Z,67.78
2022-09-03T08:57:41.983Z,67.63
2022-09-03T09:00:48.963Z,67.42
2022-09-03T09:04:07.069Z,67.86
2022-09-03T09:07:18.813Z,68.10
2022-09-03T09:10:29.395Z,67.64
2022-09-03T09:14:00.300Z,67.62
2022-09-03T09:17:23.443Z,67.83
2022-09-03T09:21:07.929Z,68.38
2022-09-03T09:24:19.486Z,68.30
2022-09-03T09:27:21.857Z,68.09
2022-09-03T09:30:23.887Z,68.02
2022-09-03T09:33:26.054Z,67.76
2022-09-03T09:36:28.549Z,67.84
2022-09-03T09:39:32.062Z,68.31
2022-09-03T09:42:33.941Z,68.61
2022-09-03T09:45:35.906Z,68.42
2022-09-03T09:48:39.528Z,68.51
2022-09-03T09:51:41.331Z,68.43
2022-09-03T09:54:48.090Z,68.84
2022-09-03T09:57:53.721Z,69.14
2022-09-03T10:01:00.236Z,68.61
2022-09-03T10:04:10.816Z,68.55
2022-09-03T10:07:33.800Z,68.10
2022-09-03T10:10:43.229Z,67.57
2022-09-03T10:13:48.858Z,67.44
2022-09-03T10:17:04.397Z,67.72
2022-09-03T10:20:31.163Z,68.28
2022-09-03T10:23:43.782Z,68.35
2022-09-03T10:26:46.613Z,68.07
2022-09-03T10:29:49.014Z,67.98
2022-09-03T10:33:05.572Z,68.25
2022-09-03T10:36:20.246Z,68.06
2022-09-03T10:39:27.938Z,68.02
2022-09-03T10:42:45.755Z,67.58
2022-09-03T10:46:08.337Z,67.54
2022-09-03T10:49:31.126Z,67.53
2022-09-03T10:52:45.050Z,67.55
2022-09-03T10:56:02.500Z,67.45
2022-09-03T10:59:34.233Z,66.82
2022-09-03T11:02:53.317Z,65.91
2022-09-03T11:06:06.489Z,66.03
2022-09-03T11:09:14.314Z,66.29
2022-09-03T11:12:47.119Z,66.40
2022-09-03T11:15:52.549Z,65.71
2022-09-03T11:18:58.061Z,66.11
2022-09-03T11:21:59.940Z,66.14
2022-09-03T11:25:02.717Z,65.98
2022-09-03T11:28:21.247Z,66.00
2022-09-03T11:32:00.526Z,66.18
2022-09-03T11:35:02.374Z,66.36
2022-09-03T11:38:21.259Z,66.38
2022-09-03T11:41:35.021Z,66.78
2022-09-03T11:44:51.374Z,66.83
2022-09-03T11:47:54.366Z,67.08
2022-09-03T11:50:56.163Z,67.01
2022-09-03T11:54:11.460Z,67.23
2022-09-03T11:57:24.179Z,67.14
2022-09-03T12:00:26.512Z,66.77
2022-09-03T12:03:36.513Z,66.79
2022-09-03T12:06:56.922Z,67.28
2022-09-03T12:10:01.650Z,66.93
2022-09-03T12:13:17.457Z,66.50
2022-09-03T12:16:37.727Z,65.89
2022-09-03T12:19:56.918Z,66.03
2022-09-03T12:22:58.548Z,66.17
2022-09-03T12:26:07.234Z,66.35
2022-09-03T12:29:22.692Z,66.53
2022-09-03T12:32:38.412Z,66.50
2022-09-03T12:39:13.404Z,66.13
2022-09-03T12:42:21.269Z,65.82
2022-09-03T12:45:25.251Z,65.64
2022-09-03T12:48:27.488Z,65.27
2022-09-03T12:51:54.238Z,65.19
2022-09-03T12:55:00.956Z,64.90
2022-09-03T12:58:14.008Z,64.18
2022-09-03T13:01:45.361Z,64.17
2022-09-03T13:04:47.316Z,64.77
2022-09-03T13:07:53.149Z,64.88
2022-09-03T13:10:57.573Z,64.78
2022-09-03T13:14:06.260Z,65.00
2022-09-03T13:17:10.805Z,65.35
2022-09-03T13:20:25.101Z,65.65
2022-09-03T13:23:53.310Z,65.84
2022-09-03T13:27:25.307Z,65.06
2022-09-03T13:30:40.352Z,63.10
2022-09-03T13:33:45.663Z,63.21
2022-09-03T13:36:57.723Z,63.10
2022-09-03T13:40:04.347Z,63.18
2022-09-03T13:43:21.931Z,63.50
2022-09-03T13:46:52.794Z,63.36
2022-09-03T13:50:22.655Z,63.40
2022-09-03T13:53:42.681Z,63.08
2022-09-03T13:57:08.054Z,62.98
2022-09-03T14:00:12.663Z,63.00
2022-09-03T14:03:37.215Z,62.90
2022-09-03T14:07:03.228Z,62.88
2022-09-03T14:10:11.778Z,61.79
2022-09-03T14:13:25.215Z,61.96
2022-09-03T14:16:36.495Z,61.71
2022-09-03T14:19:49.421Z,62.03
2022-09-03T14:22:59.640Z,62.32
2022-09-03T14:26:04.401Z,61.72
2022-09-03T14:29:12.512Z,61.34
2022-09-03T14:32:30.788Z,61.19
2022-09-03T14:35:51.408Z,61.20
2022-09-03T14:39:24.475Z,61.32
2022-09-03T14:42:53.476Z,61.43
2022-09-03T14:46:06.814Z,61.67
2022-09-03T14:49:49.939Z,62.04
2022-09-03T14:53:00.041Z,62.15
2022-09-03T14:56:18.563Z,62.17
2022-09-03T14:59:47.613Z,62.55
2022-09-03T15:03:13.964Z,62.68
2022-09-03T15:06:53.673Z,62.67
2022-09-03T15:10:13.825Z,62.88
2022-09-03T15:13:23.099Z,62.69
2022-09-03T15:16:38.682Z,62.56
2022-09-03T15:19:56.048Z,62.80
2022-09-03T15:23:42.596Z,62.85
2022-09-03T15:27:09.777Z,63.15
2022-09-03T15:30:13.604Z,63.17
2022-09-03T15:33:36.029Z,63.32
2022-09-03T15:36:41.781Z,63.56
2022-09-03T15:39:45.134Z,63.62
2022-09-03T15:42:48.835Z,63.56
2022-09-03T15:46:01.136Z,63.76
2022-09-03T15:49:21.774Z,63.71
2022-09-03T15:52:47.666Z,63.94
2022-09-03T15:56:19.194Z,64.14
2022-09-03T15:59:33.338Z,64.26
2022-09-03T16:02:52.441Z,64.46
2022-09-03T16:06:02.350Z,64.55
2022-09-03T16:09:27.200Z,64.59
2022-09-03T16:12:35.036Z,64.59
2022-09-03T16:15:44.106Z,64.67
2022-09-03T16:18:57.833Z,64.88
2022-09-03T16:22:02.305Z,64.93
2022-09-03T16:25:38.774Z,64.96
2022-09-03T16:28:59.301Z,65.19
2022-09-03T16:32:17.429Z,65.34
2022-09-03T16:35:28.329Z,65.35
2022-09-03T16:38:55.297Z,65.46
2022-09-03T16:42:25.148Z,65.72
2022-09-03T16:46:08.878Z,65.87
2022-09-03T16:49:18.342Z,65.88
2022-09-03T16:52:59.350Z,65.92
2022-09-03T16:56:16.370Z,66.02
2022-09-03T16:59:33.435Z,66.29
2022-09-03T17:02:59.069Z,66.31
2022-09-03T17:06:38.635Z,66.35
2022-09-03T17:10:11.105Z,66.62
2022-09-03T17:13:31.881Z,66.65
2022-09-03T17:16:42.628Z,67.01
2022-09-03T17:19:51.653Z,67.12
2022-09-03T17:23:19.860Z,67.31
2022-09-03T17:26:29.996Z,67.22
2022-09-03T17:29:50.662Z,67.26
2022-09-03T17:33:27.692Z,67.41
2022-09-03T17:36:31.432Z,67.52
2022-09-03T17:39:54.370Z,67.58
2022-09-03T17:43:03.651Z,67.69
2022-09-03T17:46:08.518Z,67.70
2022-09-03T17:49:17.430Z,67.81
2022-09-03T17:52:29.728Z,68.02
2022-09-03T17:55:42.332Z,67.95
2022-09-03T17:58:51.257Z,67.90
2022-09-03T18:01:59.127Z,67.88
2022-09-03T18:05:07.642Z,67.95
2022-09-03T18:08:19.202Z,68.14
2022-09-03T18:11:43.435Z,68.25
2022-09-03T18:14:51.794Z,68.53
2022-09-03T18:18:08.046Z,68.53
2022-09-03T18:21:32.071Z,68.70
2022-09-03T18:25:02.789Z,68.96
2022-09-03T18:28:26.345Z,69.08
2022-09-03T18:31:46.865Z,68.99
2022-09-03T18:35:07.381Z,69.11
2022-09-03T18:38:28.317Z,69.23
2022-09-03T18:42:06.763Z,69.35
2022-09-03T18:49:58.988Z,69.62
2022-09-03T18:53:29.665Z,69.58
2022-09-03T18:57:07.094Z,69.76
2022-09-03T19:00:31.153Z,69.83
2022-09-03T19:04:03.957Z,69.82
2022-09-03T19:07:30.305Z,69.97
2022-09-03T19:11:26.589Z,70.08
2022-09-03T19:15:10.138Z,70.18
2022-09-03T19:18:58.715Z,70.27
2022-09-03T19:22:27.061Z,70.37
2022-09-03T19:25:49.131Z,70.43
2022-09-03T19:29:15.763Z,70.52
2022-09-03T19:32:39.403Z,70.56
2022-09-03T19:36:13.723Z,70.69
2022-09-03T19:39:59.550Z,70.81
2022-09-03T19:43:41.263Z,71.02
2022-09-03T19:47:01.478Z,71.02
2022-09-03T19:50:40.688Z,71.26
2022-09-03T19:54:01.176Z,71.40
2022-09-03T19:57:22.085Z,71.48
2022-09-03T20:00:42.601Z,71.83
2022-09-03T20:04:03.551Z,71.98
2022-09-03T20:07:27.809Z,72.14
2022-09-03T20:10:29.545Z,72.37
2022-09-03T20:13:52.073Z,72.44
2022-09-03T20:17:10.278Z,72.40
2022-09-03T20:20:18.029Z,72.61
2022-09-03T20:23:33.043Z,72.62
2022-09-03T20:26:42.241Z,72.81
2022-09-03T20:30:19.716Z,73.08
2022-09-03T20:33:32.691Z,73.08
2022-09-03T20:36:49.755Z,73.36
2022-09-03T20:39:57.571Z,73.58
2022-09-03T20:43:05.394Z,73.68
2022-09-03T20:46:10.000Z,73.79
2022-09-03T20:49:19.061Z,73.82
2022-09-03T20:52:41.170Z,74.15
2022-09-03T20:55:45.259Z,74.27
2022-09-03T20:59:17.225Z,74.32
2022-09-03T21:02:37.914Z,74.64
2022-09-03T21:05:58.507Z,74.86
2022-09-03T21:09:20.991Z,75.19
2022-09-03T21:12:41.634Z,75.36
2022-09-03T21:15:50.321Z,75.24
2022-09-03T21:19:32.238Z,75.41
2022-09-03T21:22:48.738Z,75.35
2022-09-03T21:26:21.618Z,75.46
2022-09-03T21:29:29.711Z,75.38
2022-09-03T21:32:40.014Z,75.65
2022-09-03T21:35:50.751Z,75.65
2022-09-03T21:39:07.926Z,75.98
2022-09-03T21:42:36.624Z,76.22
2022-09-03T21:45:43.902Z,76.41
2022-09-03T21:49:00.861Z,76.88
2022-09-03T21:52:09.224Z,77.05
2022-09-03T21:55:42.052Z,77.38
2022-09-03T21:59:16.741Z,77.67
2022-09-03T22:02:25.615Z,77.77
2022-09-03T22:05:46.655Z,77.76
2022-09-03T22:08:59.390Z,77.51
2022-09-03T22:12:33.321Z,77.59
2022-09-03T22:15:38.380Z,77.74
2022-09-03T22:18:40.193Z,77.91
2022-09-03T22:22:00.002Z,77.98
2022-09-03T22:25:09.340Z,78.19
2022-09-03T22:28:18.093Z,78.43
2022-09-03T22:31:39.305Z,78.29
2022-09-03T22:34:44.371Z,78.19
2022-09-03T22:38:13.581Z,78.15
2022-09-03T22:41:34.830Z,78.27
2022-09-03T22:45:00.653Z,78.41
2022-09-03T22:48:19.939Z,78.43
2022-09-03T22:51:22.121Z,78.64
2022-09-03T22:54:37.026Z,78.82
2022-09-03T22:57:46.534Z,79.11
2022-09-03T23:01:18.952Z,79.28
2022-09-03T23:04:42.161Z,79.21
2022-09-03T23:07:54.835Z,79.27
2022-09-03T23:11:03.907Z,79.24
2022-09-03T23:14:09.861Z,79.35
2022-09-03T23:20:34.858Z,79.59
2022-09-03T23:23:41.129Z,79.70
2022-09-03T23:26:52.580Z,79.74
2022-09-03T23:29:55.307Z,79.66
2022-09-03T23:32:59.143Z,79.74
2022-09-03T23:36:08.473Z,79.98
2022-09-03T23:39:35.769Z,80.10
2022-09-03T23:42:49.023Z,80.31
2022-09-03T23:46:04.025Z,80.52
2022-09-03T23:49:16.859Z,80.70
2022-09-03T23:52:38.046Z,80.75
2022-09-03T23:55:58.858Z,80.98
2022-09-03T23:59:40.783Z,81.12
